• Join FlightAware (Why Join?)
  • Login
  • US Flag 
09:19AM EDT


 

Airport Tracker/Info


-or-


 

Live Flight TrackerFlight Track Log ✈ SWA3960 ✈ 09-Aug-2013 ✈ KMDW - KOMA

Flight Track Log - Related Links

Times and Time Zones

All times are in EDT time to prevent confusion due to time zone crossing. See the SWA3960 flight status page for this flight to view local times or setup timezone preferences in your user account.

Time Position Orientation Groundspeed Altitude Reporting Facility
EDT Latitude Longitude Course Direction KTS MPH feet Rate Location/Type
10:39PM 41.7950 -87.7660 307° West 139 160 1,400  Level FlightAware
10:39PM 41.7970 -87.7730 291° West 139 160 1,900 1,620 Climbing FlightAware
10:40PM 41.7900 -87.7980 249° West 194 223 2,400 1,620 Climbing FlightAware
10:40PM 41.7820 -87.8220 246° West 214 246 3,200 3,060 Climbing FlightAware
10:41PM 41.7720 -87.8520 246° West 227 261 4,600 2,880 Climbing FlightAware
10:41PM 41.7620 -87.8790 244° Southwest 259 298 5,300 3,000 Climbing FlightAware
10:41PM 41.7530 -87.9090 248° West 265 305 6,600 4,080 Climbing FlightAware
10:41PM 41.7510 -87.9250 260° West 264 304 7,300 4,320 Climbing FlightAware
10:42PM 41.7500 -87.9560 268° West 268 308 8,700 4,020 Climbing FlightAware
10:42PM 41.7470 -88.0160 266° West 276 318 11,100 2,580 Climbing FlightAware
10:43PM 41.7490 -88.0880 272° West 281 323 12,000 840 Climbing FlightAware
10:44PM 41.7550 -88.1500 277° West 290 334 12,200 840 Climbing FlightAware
10:44PM 41.7740 -88.2140 292° West 343 395 13,000 2,160 Climbing FlightAware
10:45PM 41.7980 -88.2900 293° West 364 419 14,800 3,180 Climbing FlightAware
10:45PM 41.8200 -88.3570 294° West 368 423 16,700 3,300 Climbing FlightAware
10:46PM 41.8440 -88.4320 293° West 375 432 18,600 3,000 Climbing FlightAware
10:46PM 41.8470 -88.5110 273° West 385 443 20,200 2,700 Climbing FlightAware
10:47PM 41.8440 -88.6000 267° West 395 455 21,800 2,640 Climbing FlightAware
10:48PM 41.8400 -88.6870 266° West 401 461 23,400 2,400 Climbing FlightAware
10:48PM 41.8370 -88.7770 267° West 411 473 24,700 1,980 Climbing FlightAware
10:49PM 41.8350 -88.8590 268° West 422 486 25,700 2,100 Climbing FlightAware
10:49PM 41.8330 -88.9540 268° West 423 487 27,100 2,460 Climbing FlightAware
10:50PM 41.8310 -89.0470 268° West 417 480 28,700 2,700 Climbing FlightAware
10:51PM 41.8290 -89.1310 268° West 406 467 30,200 2,640 Climbing FlightAware
10:51PM 41.8260 -89.2240 268° West 397 457 31,800 2,100 Climbing FlightAware
10:52PM 41.8230 -89.3110 267° West 399 459 32,800 1,620 Climbing FlightAware
10:52PM 41.8210 -89.3910 268° West 400 460 33,700 1,680 Climbing FlightAware
10:53PM 41.8190 -89.4740 268° West 398 458 34,700 1,620 Climbing FlightAware
10:54PM 41.8160 -89.5700 268° West 398 458 35,700 1,080 Climbing FlightAware
10:54PM 41.8140 -89.6460 268° West 392 451 36,000 240 Climbing FlightAware
10:55PM 41.8110 -89.7330 267° West 390 449 36,000  Level FlightAware
10:55PM 41.8080 -89.8200 267° West 388 447 36,000  Level FlightAware
10:56PM 41.8050 -89.9090 267° West 388 447 36,000  Level FlightAware
10:56PM 41.8030 -89.9860 268° West 388 447 36,000  Level FlightAware
10:57PM 41.8000 -90.0780 268° West 388 447 36,000  Level FlightAware
10:58PM 41.7970 -90.1500 267° West 388 447 36,000  Level FlightAware
10:58PM 41.7940 -90.2390 267° West 388 447 36,000  Level FlightAware
10:59PM 41.7910 -90.3250 267° West 387 445 36,000  Level FlightAware
10:59PM 41.7870 -90.4130 267° West 387 445 36,000  Level FlightAware
11:00PM 41.7850 -90.4830 268° West 387 445 36,000  Level FlightAware
11:00PM 41.7820 -90.5670 267° West 388 447 36,000  Level FlightAware
11:01PM 41.7780 -90.6610 267° West 388 447 36,000  Level FlightAware
11:02PM 41.7750 -90.7370 267° West 388 447 36,000  Level FlightAware
11:02PM 41.7710 -90.8250 267° West 388 447 36,000  Level FlightAware
11:03PM 41.7680 -90.9140 267° West 389 448 36,000  Level FlightAware
11:03PM 41.7650 -90.9830 267° West 389 448 36,000  Level FlightAware
11:04PM 41.7610 -91.0690 266° West 389 448 36,000  Level FlightAware
11:05PM 41.7570 -91.1670 267° West 389 448 36,000  Level FlightAware
11:05PM 41.7530 -91.2470 266° West 390 449 36,000  Level FlightAware
11:06PM 41.7490 -91.3340 267° West 390 449 36,000  Level FlightAware
11:06PM 41.7450 -91.4210 267° West 391 450 36,000  Level FlightAware
11:07PM 41.7420 -91.4980 267° West 391 450 36,000  Level FlightAware
11:08PM 41.7380 -91.5830 266° West 391 450 36,000  Level FlightAware
11:08PM 41.7340 -91.6610 266° West 392 451 36,000  Level FlightAware
11:09PM 41.7280 -91.7680 266° West 392 451 36,000  Level FlightAware
11:09PM 41.7240 -91.8520 266° West 393 452 36,000  Level FlightAware
11:10PM 41.7200 -91.9360 266° West 393 452 36,000  Level FlightAware
11:11PM 41.7160 -92.0180 266° West 393 452 36,000  Level FlightAware
11:11PM 41.7110 -92.1210 266° West 394 453 36,000  Level FlightAware
11:12PM 41.7060 -92.2030 265° West 395 455 36,000  Level FlightAware
11:12PM 41.7010 -92.2890 266° West 395 455 36,000  Level FlightAware
11:13PM 41.6970 -92.3720 266° West 394 453 36,000  Level FlightAware
11:14PM 41.6920 -92.4580 266° West 394 453 36,000  Level FlightAware
11:14PM 41.6880 -92.5440 266° West 394 453 36,000  Level FlightAware
11:15PM 41.6820 -92.6330 265° West 393 452 36,000  Level FlightAware
11:15PM 41.6780 -92.7110 266° West 392 451 36,000  Level FlightAware
11:16PM 41.6730 -92.7970 266° West 391 450 36,000  Level FlightAware
11:16PM 41.6680 -92.8820 266° West 391 450 36,000  Level FlightAware
11:17PM 41.6630 -92.9680 266° West 391 450 36,000  Level FlightAware
11:18PM 41.6580 -93.0560 266° West 392 451 36,000  Level FlightAware
11:18PM 41.6530 -93.1360 265° West 393 452 36,000  Level FlightAware
11:19PM 41.6470 -93.2250 265° West 393 452 36,000  Level FlightAware
11:19PM 41.6420 -93.3070 265° West 394 453 36,000  Level FlightAware
11:20PM 41.6360 -93.3950 265° West 396 456 36,000  Level FlightAware
11:21PM 41.6310 -93.4820 266° West 397 457 36,000  Level FlightAware
11:21PM 41.6250 -93.5740 265° West 398 458 36,000  Level FlightAware
11:22PM 41.6200 -93.6530 265° West 400 460 36,000  Level FlightAware
11:22PM 41.6140 -93.7420 265° West 400 460 36,000  Level FlightAware
11:23PM 41.6080 -93.8310 265° West 399 459 36,000 -840 Level FlightAware
11:23PM 41.6030 -93.9070 265° West 393 452 35,100 -900 Descending FlightAware
11:24PM 41.5970 -93.9940 265° West 392 451 35,000 -120 Descending FlightAware
11:25PM 41.5900 -94.0830 264° West 396 456 35,000 -360 Level FlightAware
11:25PM 41.5840 -94.1690 265° West 399 459 34,600 -2,520 Descending FlightAware
11:26PM 41.5760 -94.2880 265° West 418 481 31,500 -4,140 Descending FlightAware
11:27PM 41.5700 -94.3730 265° West 434 499 29,100 -2,040 Descending FlightAware
11:27PM 41.5630 -94.4620 264° West 434 499 29,100  Level FlightAware
11:28PM 41.5570 -94.5430 264° West 434 499 29,100  Level FlightAware
11:28PM 41.5500 -94.6250 264° West 434 499 29,100  Level FlightAware
11:29PM 41.5460 -94.6800 264° West 434 499 29,100  Level FlightAware
11:29PM 41.5400 -94.7570 264° West 434 499 29,100  Level FlightAware
11:30PM 41.5330 -94.8430 264° West 434 499 29,100 -5,820 Level FlightAware
11:32PM 41.4400 -95.2300 252° West 363 418 11,800 -6,120 Descending FlightAware
11:33PM 41.4360 -95.2950 265° West 361 415 11,500 -1,500 Descending FlightAware
11:34PM 41.4320 -95.3710 266° West 304 350 10,100 -1,920 Descending FlightAware
11:34PM 41.4310 -95.4030 268° West 292 336 9,800 -1,440 Descending FlightAware
11:34PM 41.4290 -95.4450 266° West 287 330 9,100 -1,800 Descending FlightAware
11:35PM 41.4270 -95.4770 265° West 284 327 8,600 -720 Descending FlightAware
11:35PM 41.4250 -95.5160 266° West 284 327 8,600 -2,100 Level FlightAware
11:35PM 41.4230 -95.5490 265° West 283 326 7,200 -3,720 Descending FlightAware
11:35PM 41.4220 -95.5760 267° West 280 322 6,700 -1,620 Descending FlightAware
11:36PM 41.4200 -95.6160 266° West 276 318 6,100 -1,800 Descending FlightAware
11:36PM 41.4180 -95.6460 265° West 272 313 5,500 -1,440 Descending FlightAware
11:37PM 41.4160 -95.6850 266° West 260 299 5,200 -900 Descending FlightAware
11:37PM 41.4130 -95.7400 266° West 242 278 4,600 -1,200 Descending FlightAware
11:38PM 41.4100 -95.7900 265° West 234 269 3,800 -1,320 Descending FlightAware
11:38PM 41.4080 -95.8330 266° West 223 257 3,200 -1,080 Descending FlightAware
11:39PM 41.4060 -95.8550 263° West 217 250 2,900 -720 Descending FlightAware
11:39PM 41.3990 -95.8910 255° West 188 216 2,700 -900 Descending FlightAware
11:39PM 41.3920 -95.8960 208° Southwest 182 209 2,400 -600 Descending FlightAware
11:40PM 41.3700 -95.9090 204° Southwest 182 209 2,300 -1,080 Descending FlightAware
11:40PM 41.3670 -95.8950 106° East 175 201 1,800 -1,080 Descending FlightAware
11:40PM 41.3490 -95.8900 168° South 175 201 1,800 -480 Level FlightAware
11:42PM 41.2964 -95.8931 168° South 163 188 1,000 -600 Descending Minneapolis Center